Time;durP1;ratioP1;P1;durP2;ratioP2;P2;SDS_P1;SDS_P2;PMS_P1;PMS_P2;Temp;Humidity;BMP_temperature;BMP_pressure;BME280_temperature;BME280_humidity;BME280_pressure;Samples;Min_cycle;Max_cycle;Signal;HPM_P1;HPM_P2
2023/01/06 00:00:39;;;;;;;53.05;20.25;;;;;;;;;;5060949;28;20040;-67
2023/01/06 00:03:05;;;;;;;51.03;21.52;;;;;;;;;;5078175;28;20048;-67
2023/01/06 00:05:31;;;;;;;48.55;20.55;;;;;;;;;;5075577;28;20486;-67
2023/01/06 00:07:58;;;;;;;52.22;21.20;;;;;;;;;;5071760;28;20523;-66
2023/01/06 00:10:24;;;;;;;50.10;20.38;;;;;;;;;;5070873;28;20044;-67
2023/01/06 00:12:50;;;;;;;48.53;21.33;;;;;;;;;;5069892;28;20075;-67
2023/01/06 00:15:17;;;;;;;44.72;20.45;;;;;;;;;;5072227;28;20041;-67
2023/01/06 00:17:44;;;;;;;45.03;18.13;;;;;;;;;;5069532;28;20394;-67
2023/01/06 00:20:10;;;;;;;50.20;22.08;;;;;;;;;;5068385;28;20028;-67
2023/01/06 00:22:38;;;;;;;49.10;21.02;;;;;;;;;;5062623;28;20047;-67
2023/01/06 00:25:04;;;;;;;48.33;19.83;;;;;;;;;;5062409;28;20047;-67
2023/01/06 00:27:31;;;;;;;45.50;20.52;;;;;;;;;;5070331;28;20036;-67
2023/01/06 00:29:57;;;;;;;44.45;19.10;;;;;;;;;;5062217;28;20037;-67
2023/01/06 00:32:23;;;;;;;42.45;18.92;;;;;;;;;;5064398;28;20041;-67
2023/01/06 00:34:49;;;;;;;36.78;17.70;;;;;;;;;;5070218;28;20446;-67
2023/01/06 00:37:15;;;;;;;45.03;18.00;;;;;;;;;;5070988;28;20162;-68
2023/01/06 00:39:41;;;;;;;35.55;15.00;;;;;;;;;;5069679;28;20072;-67
2023/01/06 00:42:07;;;;;;;41.17;18.88;;;;;;;;;;5070514;28;20121;-68
2023/01/06 00:44:34;;;;;;;39.40;17.20;;;;;;;;;;5071612;28;20041;-67
2023/01/06 00:47:01;;;;;;;34.90;17.50;;;;;;;;;;5068927;28;20406;-67
2023/01/06 00:49:27;;;;;;;33.85;15.50;;;;;;;;;;5064315;28;20076;-68
2023/01/06 00:51:53;;;;;;;36.20;16.70;;;;;;;;;;5069865;28;20041;-67
2023/01/06 00:54:19;;;;;;;31.05;14.27;;;;;;;;;;5065399;28;20095;-67
2023/01/06 00:56:46;;;;;;;29.70;14.55;;;;;;;;;;5069237;28;20048;-68
2023/01/06 00:59:13;;;;;;;29.75;14.50;;;;;;;;;;5062806;28;20486;-66
2023/01/06 01:01:40;;;;;;;20.73;12.20;;;;;;;;;;5064532;28;20526;-67
2023/01/06 01:04:06;;;;;;;25.90;13.05;;;;;;;;;;5069432;28;20490;-67
2023/01/06 01:06:32;;;;;;;26.48;12.70;;;;;;;;;;5068488;28;20033;-67
2023/01/06 01:08:59;;;;;;;27.70;12.57;;;;;;;;;;5068968;28;20037;-68
2023/01/06 01:14:11;;;;;;;16.92;10.18;;;;;;;;;;5063727;28;20414;-67
2023/01/06 01:16:37;;;;;;;22.85;10.55;;;;;;;;;;5069897;28;20120;-67
2023/01/06 01:19:03;;;;;;;19.15;10.55;;;;;;;;;;5070175;28;20039;-67
2023/01/06 01:21:29;;;;;;;19.65;10.00;;;;;;;;;;5069634;28;20045;-67
2023/01/06 01:23:55;;;;;;;15.73;9.32;;;;;;;;;;5069281;28;20037;-68
2023/01/06 01:26:21;;;;;;;19.58;9.70;;;;;;;;;;5069069;28;20048;-67
2023/01/06 01:28:47;;;;;;;22.40;9.80;;;;;;;;;;5068911;28;20036;-67
2023/01/06 01:31:14;;;;;;;16.08;8.18;;;;;;;;;;5070824;28;20041;-67
2023/01/06 01:33:41;;;;;;;16.63;8.90;;;;;;;;;;5068798;28;20045;-67
2023/01/06 01:36:10;;;;;;;18.92;8.48;;;;;;;;;;5070973;28;20032;-67
2023/01/06 01:38:36;;;;;;;15.57;8.90;;;;;;;;;;5063250;28;20498;-67
2023/01/06 01:41:03;;;;;;;15.20;8.90;;;;;;;;;;5059389;28;20052;-67
2023/01/06 01:43:48;;;;;;;19.17;8.73;;;;;;;;;;5074231;28;20134;-67
2023/01/06 01:46:18;;;;;;;18.48;8.50;;;;;;;;;;5063079;28;20039;-66
2023/01/06 01:48:44;;;;;;;14.60;7.53;;;;;;;;;;5068529;28;20029;-67
2023/01/06 01:51:13;;;;;;;18.65;8.80;;;;;;;;;;5074244;28;20024;-67
2023/01/06 01:53:42;;;;;;;14.82;8.32;;;;;;;;;;5065952;28;20127;-67
2023/01/06 01:56:21;;;;;;;14.85;7.50;;;;;;;;;;5073259;28;20047;-67
2023/01/06 01:58:50;;;;;;;15.77;8.23;;;;;;;;;;5074010;28;20052;-66
2023/01/06 02:01:16;;;;;;;14.20;8.77;;;;;;;;;;5063469;28;20082;-67
2023/01/06 02:06:18;;;;;;;17.77;8.35;;;;;;;;;;5023012;28;20124;-62
2023/01/06 02:08:56;;;;;;;13.98;7.88;;;;;;;;;;5031295;28;20251;-63
2023/01/06 02:11:22;;;;;;;15.07;8.52;;;;;;;;;;5033694;28;20033;-62
2023/01/06 02:13:50;;;;;;;10.80;6.75;;;;;;;;;;5032796;28;20500;-62
2023/01/06 02:16:22;;;;;;;14.55;7.72;;;;;;;;;;5013659;28;20053;-62
2023/01/06 02:19:01;;;;;;;10.50;6.53;;;;;;;;;;5011318;28;20037;-62
2023/01/06 02:21:41;;;;;;;9.95;7.28;;;;;;;;;;5011760;28;20491;-62
2023/01/06 02:24:16;;;;;;;12.20;6.63;;;;;;;;;;5007625;28;20038;-62
2023/01/06 02:26:48;;;;;;;16.20;7.35;;;;;;;;;;5022783;28;20038;-62
2023/01/06 02:29:43;;;;;;;13.85;6.95;;;;;;;;;;5021518;28;20088;-62
2023/01/06 02:32:09;;;;;;;14.25;7.05;;;;;;;;;;4988524;28;20045;-62
2023/01/06 02:34:38;;;;;;;10.98;6.43;;;;;;;;;;5013532;28;20373;-62
2023/01/06 02:37:13;;;;;;;14.43;6.65;;;;;;;;;;5013467;28;20045;-62
2023/01/06 02:39:48;;;;;;;8.88;5.35;;;;;;;;;;5012748;28;20053;-62
2023/01/06 02:42:17;;;;;;;10.50;6.80;;;;;;;;;;5007845;28;20046;-62
2023/01/06 02:45:05;;;;;;;10.50;5.93;;;;;;;;;;5011103;28;20042;-63
2023/01/06 02:47:34;;;;;;;10.90;6.10;;;;;;;;;;5001583;28;20034;-62
2023/01/06 02:50:00;;;;;;;12.45;6.40;;;;;;;;;;5007105;28;20042;-62
2023/01/06 02:52:32;;;;;;;9.52;6.28;;;;;;;;;;5011300;28;20167;-62
2023/01/06 02:55:23;;;;;;;11.07;6.35;;;;;;;;;;5019678;28;20034;-62
2023/01/06 02:58:00;;;;;;;14.32;6.85;;;;;;;;;;5012176;28;20076;-62
2023/01/06 03:00:29;;;;;;;9.23;6.10;;;;;;;;;;5017089;28;20403;-63
2023/01/06 03:02:57;;;;;;;10.93;6.35;;;;;;;;;;5012323;28;20034;-62
2023/01/06 03:05:24;;;;;;;8.35;6.50;;;;;;;;;;5010842;28;20045;-62
2023/01/06 03:07:51;;;;;;;9.02;5.72;;;;;;;;;;5011902;28;20491;-62
2023/01/06 03:10:19;;;;;;;13.27;6.75;;;;;;;;;;5010824;28;20084;-62
2023/01/06 03:12:52;;;;;;;9.10;6.75;;;;;;;;;;5014372;28;20500;-63
2023/01/06 03:15:18;;;;;;;11.30;7.28;;;;;;;;;;5005457;28;20096;-62
2023/01/06 03:17:44;;;;;;;11.93;7.32;;;;;;;;;;5012656;28;20042;-62
2023/01/06 03:20:11;;;;;;;10.60;7.35;;;;;;;;;;5012789;28;20565;-62
2023/01/06 03:22:37;;;;;;;11.07;6.22;;;;;;;;;;5017975;28;20124;-62
2023/01/06 03:25:04;;;;;;;11.45;6.80;;;;;;;;;;5010078;28;20048;-62
2023/01/06 03:27:30;;;;;;;9.55;7.05;;;;;;;;;;5015150;28;20073;-62
2023/01/06 03:29:56;;;;;;;12.93;7.97;;;;;;;;;;5013674;28;20070;-63
2023/01/06 03:32:33;;;;;;;16.55;8.27;;;;;;;;;;5010259;28;20041;-62
2023/01/06 03:34:59;;;;;;;13.30;9.77;;;;;;;;;;5009511;28;20065;-62
2023/01/06 03:37:48;;;;;;;13.23;9.43;;;;;;;;;;5011872;28;20112;-62
2023/01/06 03:40:23;;;;;;;19.95;11.32;;;;;;;;;;4984806;28;20062;-62
2023/01/06 03:45:36;;;;;;;19.63;12.27;;;;;;;;;;5023166;28;20049;-62
2023/01/06 03:48:28;;;;;;;17.90;12.88;;;;;;;;;;5004722;28;20476;-62
2023/01/06 03:51:07;;;;;;;19.67;13.13;;;;;;;;;;5009590;28;20046;-62
2023/01/06 03:53:48;;;;;;;19.20;12.10;;;;;;;;;;5012045;28;20117;-61
2023/01/06 03:56:29;;;;;;;20.63;12.23;;;;;;;;;;5010694;28;20034;-62
2023/01/06 03:58:57;;;;;;;18.00;12.40;;;;;;;;;;5011318;28;20044;-62
2023/01/06 04:01:25;;;;;;;16.75;12.20;;;;;;;;;;5020422;28;20045;-62
2023/01/06 04:03:54;;;;;;;16.67;11.55;;;;;;;;;;5010927;28;20496;-62
2023/01/06 04:06:21;;;;;;;19.90;12.25;;;;;;;;;;5002380;28;20598;-62
2023/01/06 04:08:47;;;;;;;18.17;10.88;;;;;;;;;;5005063;28;20042;-62
2023/01/06 04:13:57;;;;;;;17.17;10.70;;;;;;;;;;5019847;28;20056;-62
2023/01/06 04:16:23;;;;;;;16.80;10.60;;;;;;;;;;5011009;28;20124;-63
2023/01/06 04:18:49;;;;;;;13.10;9.63;;;;;;;;;;5009216;28;20404;-62
2023/01/06 04:21:15;;;;;;;13.85;9.88;;;;;;;;;;5010835;28;20477;-62
2023/01/06 04:23:41;;;;;;;14.65;9.02;;;;;;;;;;5016418;28;20084;-62
2023/01/06 04:26:07;;;;;;;12.45;8.40;;;;;;;;;;5002535;28;20030;-62
2023/01/06 04:28:33;;;;;;;14.82;9.75;;;;;;;;;;5011922;28;20038;-62
2023/01/06 04:31:00;;;;;;;14.98;9.15;;;;;;;;;;5012841;28;20042;-62
2023/01/06 04:33:26;;;;;;;13.05;8.57;;;;;;;;;;4997813;28;20046;-62
2023/01/06 04:35:52;;;;;;;10.27;7.93;;;;;;;;;;5012506;28;20098;-62
2023/01/06 04:38:18;;;;;;;12.13;8.23;;;;;;;;;;5010121;28;20045;-62
2023/01/06 04:40:44;;;;;;;12.70;7.85;;;;;;;;;;5009403;28;20038;-63
2023/01/06 04:43:14;;;;;;;10.68;7.55;;;;;;;;;;5010874;28;20514;-62
2023/01/06 04:45:41;;;;;;;13.93;7.65;;;;;;;;;;5019545;28;20038;-62
2023/01/06 04:48:07;;;;;;;11.43;8.02;;;;;;;;;;5010472;28;20053;-62
2023/01/06 04:50:33;;;;;;;11.32;6.43;;;;;;;;;;5011192;28;20038;-62
2023/01/06 04:52:59;;;;;;;9.68;7.07;;;;;;;;;;5012064;28;20068;-62
2023/01/06 04:55:25;;;;;;;7.80;6.53;;;;;;;;;;5010840;28;20080;-62
2023/01/06 04:57:52;;;;;;;9.68;5.78;;;;;;;;;;5011434;28;20050;-62
2023/01/06 05:00:18;;;;;;;7.13;6.07;;;;;;;;;;5010867;28;20066;-62
2023/01/06 05:02:44;;;;;;;9.15;6.20;;;;;;;;;;5008165;28;20041;-62
2023/01/06 05:05:10;;;;;;;11.65;5.75;;;;;;;;;;5019169;28;20038;-62
2023/01/06 05:07:36;;;;;;;10.82;5.70;;;;;;;;;;5006972;28;20068;-62
2023/01/06 05:10:03;;;;;;;6.80;5.00;;;;;;;;;;5013464;28;20389;-62
2023/01/06 05:12:30;;;;;;;6.03;4.72;;;;;;;;;;5009524;28;20124;-62
2023/01/06 05:14:56;;;;;;;6.63;4.13;;;;;;;;;;5007294;28;20052;-62
2023/01/06 05:17:22;;;;;;;6.03;4.82;;;;;;;;;;5006139;28;20042;-62
2023/01/06 05:19:48;;;;;;;5.50;4.38;;;;;;;;;;5004620;28;20451;-62
2023/01/06 05:22:14;;;;;;;6.30;4.25;;;;;;;;;;5005668;28;20136;-62
2023/01/06 05:24:40;;;;;;;7.20;3.95;;;;;;;;;;5007128;28;20060;-62
2023/01/06 05:27:07;;;;;;;4.82;3.15;;;;;;;;;;5006830;28;20037;-62
2023/01/06 05:29:33;;;;;;;7.95;4.68;;;;;;;;;;5006998;28;20069;-62
2023/01/06 05:31:59;;;;;;;8.40;3.85;;;;;;;;;;5010144;28;20037;-62
2023/01/06 05:34:25;;;;;;;6.82;4.28;;;;;;;;;;5009914;28;20042;-63
2023/01/06 05:36:51;;;;;;;6.05;3.47;;;;;;;;;;5009069;28;20046;-63
2023/01/06 05:39:17;;;;;;;6.20;3.53;;;;;;;;;;5008817;28;20381;-62
2023/01/06 05:41:43;;;;;;;6.65;4.10;;;;;;;;;;5003053;28;20044;-62
2023/01/06 05:44:09;;;;;;;6.72;4.03;;;;;;;;;;5009384;28;20034;-62
2023/01/06 05:46:35;;;;;;;4.97;3.22;;;;;;;;;;5015080;28;20041;-62
2023/01/06 05:49:01;;;;;;;5.47;3.78;;;;;;;;;;5007853;28;20046;-62
2023/01/06 05:51:28;;;;;;;5.45;3.92;;;;;;;;;;5008331;28;20064;-62
2023/01/06 05:53:55;;;;;;;7.30;4.00;;;;;;;;;;5007532;28;20476;-62
2023/01/06 05:56:22;;;;;;;6.13;3.90;;;;;;;;;;5011984;28;20133;-62
2023/01/06 05:58:50;;;;;;;8.13;4.22;;;;;;;;;;5007580;28;20045;-62
2023/01/06 06:01:23;;;;;;;5.32;3.95;;;;;;;;;;5015574;28;21143;-63
2023/01/06 06:03:50;;;;;;;6.78;3.53;;;;;;;;;;5010109;28;20038;-62
2023/01/06 06:06:16;;;;;;;6.57;4.03;;;;;;;;;;5011543;28;20038;-62
2023/01/06 06:08:42;;;;;;;6.85;3.75;;;;;;;;;;4998528;28;20046;-62
2023/01/06 06:11:18;;;;;;;6.35;3.00;;;;;;;;;;5005120;28;20076;-62
2023/01/06 06:13:48;;;;;;;5.28;4.05;;;;;;;;;;4999315;28;20034;-63
2023/01/06 06:16:15;;;;;;;4.55;3.17;;;;;;;;;;5005172;28;20590;-62
2023/01/06 06:18:41;;;;;;;6.13;3.67;;;;;;;;;;5004461;28;20512;-62
2023/01/06 06:21:08;;;;;;;5.60;3.60;;;;;;;;;;5000210;28;20034;-62
2023/01/06 06:23:34;;;;;;;4.78;3.13;;;;;;;;;;5002709;28;20117;-62
2023/01/06 06:26:01;;;;;;;4.03;2.83;;;;;;;;;;5008255;28;20041;-62
2023/01/06 06:28:29;;;;;;;4.55;3.00;;;;;;;;;;5007131;28;20555;-62
2023/01/06 06:30:55;;;;;;;5.43;3.30;;;;;;;;;;5008892;28;20033;-62
2023/01/06 06:33:21;;;;;;;5.90;3.63;;;;;;;;;;5008682;28;20052;-62
2023/01/06 06:35:55;;;;;;;5.40;3.40;;;;;;;;;;5006652;28;20053;-63
2023/01/06 06:38:21;;;;;;;5.18;3.33;;;;;;;;;;5007024;28;20129;-62
2023/01/06 06:40:47;;;;;;;4.45;2.95;;;;;;;;;;5005154;28;20124;-62
2023/01/06 06:43:13;;;;;;;6.35;3.55;;;;;;;;;;5008426;28;20038;-62
2023/01/06 06:45:39;;;;;;;3.75;2.83;;;;;;;;;;5010740;28;20038;-62
2023/01/06 06:48:05;;;;;;;3.70;3.38;;;;;;;;;;5009100;28;20041;-62
2023/01/06 06:50:31;;;;;;;5.55;3.15;;;;;;;;;;5009607;28;20053;-62
2023/01/06 06:52:57;;;;;;;5.22;3.38;;;;;;;;;;5013009;28;20037;-62
2023/01/06 06:55:23;;;;;;;8.07;4.00;;;;;;;;;;5010378;28;20045;-62
2023/01/06 06:57:49;;;;;;;5.47;3.30;;;;;;;;;;5000780;28;20139;-62
2023/01/06 07:00:15;;;;;;;5.18;3.55;;;;;;;;;;5009880;28;20057;-62
2023/01/06 07:02:41;;;;;;;5.57;4.28;;;;;;;;;;5001286;28;20099;-62
2023/01/06 07:05:07;;;;;;;5.57;3.97;;;;;;;;;;5007872;28;20160;-63
2023/01/06 07:07:33;;;;;;;5.10;3.85;;;;;;;;;;5009446;28;20042;-62
2023/01/06 07:09:59;;;;;;;6.35;4.30;;;;;;;;;;5005323;28;20045;-63
2023/01/06 07:12:25;;;;;;;10.07;5.15;;;;;;;;;;5011378;28;20046;-63
2023/01/06 07:14:51;;;;;;;8.77;4.82;;;;;;;;;;5011808;28;20360;-62
2023/01/06 07:17:17;;;;;;;7.88;4.38;;;;;;;;;;5005272;28;20514;-62
2023/01/06 07:19:43;;;;;;;6.63;4.28;;;;;;;;;;5009427;28;20046;-62
2023/01/06 07:22:09;;;;;;;6.90;5.05;;;;;;;;;;5006831;28;20070;-62
2023/01/06 07:24:35;;;;;;;7.95;4.40;;;;;;;;;;5004861;28;20325;-62
2023/01/06 07:27:01;;;;;;;8.98;4.60;;;;;;;;;;5009194;28;20048;-62
2023/01/06 07:29:27;;;;;;;7.40;4.70;;;;;;;;;;5012999;28;20091;-62
2023/01/06 07:31:53;;;;;;;8.02;5.80;;;;;;;;;;5009467;28;20070;-62
2023/01/06 07:34:19;;;;;;;6.78;4.55;;;;;;;;;;5008002;28;20046;-62
2023/01/06 07:36:45;;;;;;;5.72;4.72;;;;;;;;;;5009066;28;20037;-62
2023/01/06 07:39:11;;;;;;;6.85;4.57;;;;;;;;;;5005601;28;20138;-62
2023/01/06 07:41:37;;;;;;;11.35;4.45;;;;;;;;;;5006292;28;20103;-62
2023/01/06 07:44:03;;;;;;;7.63;4.93;;;;;;;;;;5003770;28;20041;-62
2023/01/06 07:46:29;;;;;;;7.28;5.28;;;;;;;;;;5010325;28;20045;-62
2023/01/06 07:48:56;;;;;;;10.70;6.05;;;;;;;;;;5010092;28;20034;-62
2023/01/06 07:51:21;;;;;;;7.70;5.13;;;;;;;;;;5007604;28;20042;-62
2023/01/06 07:53:47;;;;;;;8.18;5.28;;;;;;;;;;5009768;28;20045;-62
2023/01/06 07:56:14;;;;;;;6.93;5.82;;;;;;;;;;5011994;28;20464;-62
2023/01/06 07:58:40;;;;;;;7.43;5.40;;;;;;;;;;5012762;28;20064;-62
2023/01/06 08:01:07;;;;;;;8.00;4.97;;;;;;;;;;5007704;28;20046;-62
2023/01/06 08:03:33;;;;;;;8.27;5.82;;;;;;;;;;5007005;28;20069;-63
2023/01/06 08:05:59;;;;;;;9.65;6.38;;;;;;;;;;5072840;22;20044;-68
2023/01/06 08:08:25;;;;;;;7.03;5.88;;;;;;;;;;5082340;28;20105;-68
2023/01/06 08:10:51;;;;;;;7.00;5.28;;;;;;;;;;5078424;28;20036;-68
2023/01/06 08:13:17;;;;;;;9.90;5.65;;;;;;;;;;5078175;28;20116;-68
2023/01/06 08:15:43;;;;;;;9.15;4.72;;;;;;;;;;5076706;28;20167;-68
2023/01/06 08:18:10;;;;;;;7.30;5.50;;;;;;;;;;5089541;28;20063;-67
2023/01/06 08:20:36;;;;;;;6.75;5.43;;;;;;;;;;5085209;28;20044;-67
2023/01/06 08:23:02;;;;;;;5.38;4.72;;;;;;;;;;5086334;28;20157;-67
2023/01/06 08:25:28;;;;;;;6.55;4.32;;;;;;;;;;5076756;28;20055;-67
2023/01/06 08:27:54;;;;;;;6.18;2.83;;;;;;;;;;5075626;28;20032;-67
2023/01/06 08:30:20;;;;;;;5.13;2.72;;;;;;;;;;5081320;28;20062;-67
2023/01/06 08:32:49;;;;;;;3.17;2.70;;;;;;;;;;5088684;28;20037;-66
2023/01/06 08:35:15;;;;;;;5.20;2.42;;;;;;;;;;5090961;28;20413;-67
2023/01/06 08:37:41;;;;;;;6.63;2.40;;;;;;;;;;5085259;28;20516;-67
2023/01/06 08:40:07;;;;;;;5.93;2.10;;;;;;;;;;5075648;28;20070;-66
2023/01/06 08:42:33;;;;;;;4.88;1.65;;;;;;;;;;5079654;28;20044;-67
2023/01/06 08:44:59;;;;;;;4.70;1.70;;;;;;;;;;5090548;28;20040;-67
2023/01/06 08:47:25;;;;;;;2.55;1.20;;;;;;;;;;5086648;28;20028;-67
2023/01/06 08:49:54;;;;;;;2.40;1.38;;;;;;;;;;5086571;28;20032;-67
2023/01/06 08:52:20;;;;;;;5.28;1.50;;;;;;;;;;5079914;28;20607;-67
2023/01/06 08:54:46;;;;;;;3.67;1.30;;;;;;;;;;5088224;28;20047;-67
2023/01/06 08:57:14;;;;;;;5.40;1.48;;;;;;;;;;5085330;28;20044;-67
2023/01/06 08:59:41;;;;;;;3.60;1.42;;;;;;;;;;5086020;28;20044;-67
2023/01/06 09:02:08;;;;;;;4.95;1.17;;;;;;;;;;5079988;28;20116;-67
2023/01/06 09:04:34;;;;;;;5.38;1.30;;;;;;;;;;5050176;28;1058151;-66
2023/01/06 09:07:00;;;;;;;3.70;1.42;;;;;;;;;;5082440;28;20493;-67
2023/01/06 09:09:26;;;;;;;4.30;1.48;;;;;;;;;;5088020;28;20043;-67
2023/01/06 09:11:52;;;;;;;6.43;1.27;;;;;;;;;;5086504;28;20037;-67
2023/01/06 09:14:18;;;;;;;3.28;1.30;;;;;;;;;;5078370;28;20032;-67
2023/01/06 09:16:46;;;;;;;5.50;1.45;;;;;;;;;;5082987;28;20086;-67
2023/01/06 09:19:12;;;;;;;3.40;1.05;;;;;;;;;;5087065;28;20070;-67
2023/01/06 09:21:41;;;;;;;3.80;1.20;;;;;;;;;;5087761;28;20064;-68
2023/01/06 09:24:09;;;;;;;5.43;1.30;;;;;;;;;;5086072;28;20122;-67
2023/01/06 09:26:35;;;;;;;4.80;1.27;;;;;;;;;;5091435;28;20539;-68
2023/01/06 09:29:01;;;;;;;5.13;1.15;;;;;;;;;;5091466;28;20064;-67
2023/01/06 09:31:27;;;;;;;7.60;0.98;;;;;;;;;;5063669;28;20047;-67
2023/01/06 09:33:53;;;;;;;8.13;1.30;;;;;;;;;;5084806;28;20431;-67
2023/01/06 09:36:19;;;;;;;7.00;1.52;;;;;;;;;;5080753;28;20540;-67
2023/01/06 09:38:45;;;;;;;7.53;1.40;;;;;;;;;;5088099;28;20075;-67
2023/01/06 09:41:29;;;;;;;5.75;1.40;;;;;;;;;;5085606;28;20071;-67
2023/01/06 09:44:02;;;;;;;9.63;1.60;;;;;;;;;;5086818;28;20029;-67
2023/01/06 09:46:31;;;;;;;8.35;1.50;;;;;;;;;;5087127;28;20044;-67
2023/01/06 09:49:07;;;;;;;5.03;1.08;;;;;;;;;;5085091;28;20465;-67
2023/01/06 09:51:33;;;;;;;5.65;1.42;;;;;;;;;;5073261;28;20041;-68
2023/01/06 09:54:12;;;;;;;4.10;1.00;;;;;;;;;;5087160;28;20553;-68
2023/01/06 09:56:40;;;;;;;7.07;1.23;;;;;;;;;;5088923;28;20036;-68
2023/01/06 09:59:16;;;;;;;5.10;1.27;;;;;;;;;;5091707;28;20058;-68
2023/01/06 10:01:45;;;;;;;5.38;1.00;;;;;;;;;;5087258;28;20564;-68
2023/01/06 10:04:17;;;;;;;6.85;1.25;;;;;;;;;;5086287;28;20043;-68
2023/01/06 10:06:50;;;;;;;4.40;1.02;;;;;;;;;;5084425;28;20122;-68
2023/01/06 10:09:30;;;;;;;6.72;1.00;;;;;;;;;;5093688;28;20405;-68
2023/01/06 10:12:19;;;;;;;5.35;1.38;;;;;;;;;;5092669;28;20032;-68
2023/01/06 10:14:56;;;;;;;4.18;1.20;;;;;;;;;;5083174;28;20504;-68
2023/01/06 10:17:41;;;;;;;7.68;1.35;;;;;;;;;;5092500;28;20050;-68
2023/01/06 10:20:12;;;;;;;8.80;1.40;;;;;;;;;;5088236;28;20040;-68
2023/01/06 10:23:02;;;;;;;7.05;1.27;;;;;;;;;;5085309;28;20350;-67
2023/01/06 10:25:39;;;;;;;7.03;1.10;;;;;;;;;;5084987;28;20055;-68
2023/01/06 10:28:17;;;;;;;7.05;1.00;;;;;;;;;;5086757;28;20032;-68
2023/01/06 10:30:49;;;;;;;6.80;1.17;;;;;;;;;;5086961;28;20040;-66
2023/01/06 10:33:26;;;;;;;5.60;1.33;;;;;;;;;;5070522;28;20482;-65
2023/01/06 10:35:53;;;;;;;8.10;1.45;;;;;;;;;;5080429;28;20541;-66
2023/01/06 10:38:25;;;;;;;7.15;1.20;;;;;;;;;;5091187;28;20040;-67
2023/01/06 10:40:53;;;;;;;9.32;1.05;;;;;;;;;;5090703;28;20040;-67
2023/01/06 10:43:21;;;;;;;5.78;1.20;;;;;;;;;;5090907;28;20028;-67
2023/01/06 10:45:48;;;;;;;6.82;1.33;;;;;;;;;;5080150;28;20044;-67
2023/01/06 10:48:15;;;;;;;5.78;1.40;;;;;;;;;;5086693;28;20040;-67
2023/01/06 10:50:41;;;;;;;10.90;1.83;;;;;;;;;;5084157;28;20087;-67
2023/01/06 10:53:09;;;;;;;10.18;1.42;;;;;;;;;;5086884;28;20028;-67
2023/01/06 10:55:35;;;;;;;5.70;1.52;;;;;;;;;;5081141;28;20531;-66
2023/01/06 10:58:21;;;;;;;5.53;1.17;;;;;;;;;;5081990;28;20039;-68
2023/01/06 11:01:16;;;;;;;6.68;1.17;;;;;;;;;;5078512;28;20061;-68
2023/01/06 11:03:43;;;;;;;7.68;1.25;;;;;;;;;;5091469;28;20349;-68
2023/01/06 11:06:09;;;;;;;9.27;1.55;;;;;;;;;;5088100;28;20493;-68
2023/01/06 11:08:45;;;;;;;7.47;1.40;;;;;;;;;;5083739;28;20039;-68
2023/01/06 11:11:12;;;;;;;13.02;1.65;;;;;;;;;;5084494;28;20032;-68
2023/01/06 11:13:39;;;;;;;7.28;1.30;;;;;;;;;;5093791;28;20044;-68
2023/01/06 11:16:07;;;;;;;9.48;1.70;;;;;;;;;;5093438;28;20079;-68
2023/01/06 11:18:35;;;;;;;10.32;1.98;;;;;;;;;;5094169;28;20048;-69
2023/01/06 11:21:01;;;;;;;11.40;1.38;;;;;;;;;;5079382;28;20048;-69
2023/01/06 11:23:28;;;;;;;8.45;1.20;;;;;;;;;;5078831;28;20037;-68
2023/01/06 11:26:00;;;;;;;10.98;1.92;;;;;;;;;;5079061;28;20490;-68
2023/01/06 11:28:27;;;;;;;8.05;1.27;;;;;;;;;;5086450;28;20032;-68
2023/01/06 11:31:11;;;;;;;9.30;1.27;;;;;;;;;;5092364;28;20508;-68
2023/01/06 11:33:46;;;;;;;7.97;1.40;;;;;;;;;;5090984;28;20482;-68
2023/01/06 11:36:13;;;;;;;8.98;1.80;;;;;;;;;;5086004;28;20412;-69
2023/01/06 11:38:42;;;;;;;8.80;1.58;;;;;;;;;;5080960;28;20116;-68
2023/01/06 11:41:09;;;;;;;5.70;1.17;;;;;;;;;;5083386;28;20040;-68
2023/01/06 11:43:37;;;;;;;7.82;1.55;;;;;;;;;;5075553;28;20040;-69
2023/01/06 11:46:08;;;;;;;5.03;1.30;;;;;;;;;;5087425;28;20501;-68
2023/01/06 11:48:36;;;;;;;6.20;1.40;;;;;;;;;;5086029;28;20036;-68
2023/01/06 11:51:07;;;;;;;7.00;1.20;;;;;;;;;;5080990;28;20565;-68
2023/01/06 11:53:33;;;;;;;9.80;1.45;;;;;;;;;;5085467;28;20040;-69
2023/01/06 11:56:05;;;;;;;9.48;1.75;;;;;;;;;;5091294;28;20081;-69
2023/01/06 11:58:50;;;;;;;11.52;1.58;;;;;;;;;;5085850;28;20056;-68
2023/01/06 12:01:16;;;;;;;8.48;1.52;;;;;;;;;;5085826;28;20646;-68
2023/01/06 12:03:47;;;;;;;11.35;1.75;;;;;;;;;;5082081;28;20110;-69
2023/01/06 12:06:12;;;;;;;11.97;2.27;;;;;;;;;;5070889;28;20032;-68
2023/01/06 12:08:41;;;;;;;8.70;1.58;;;;;;;;;;5059102;28;21418;-68
2023/01/06 12:11:20;;;;;;;5.15;1.05;;;;;;;;;;5051599;28;20374;-68
2023/01/06 12:13:46;;;;;;;6.82;1.30;;;;;;;;;;5061477;28;20383;-68
2023/01/06 12:16:22;;;;;;;4.32;1.30;;;;;;;;;;5067279;28;20033;-68
2023/01/06 12:18:48;;;;;;;5.28;1.20;;;;;;;;;;5081279;28;20063;-69
2023/01/06 12:21:16;;;;;;;6.40;1.15;;;;;;;;;;5081239;28;20083;-68
2023/01/06 12:23:43;;;;;;;6.95;1.33;;;;;;;;;;5084260;28;20035;-68
2023/01/06 12:26:13;;;;;;;5.75;1.13;;;;;;;;;;5085304;28;20035;-68
2023/01/06 12:28:45;;;;;;;8.88;1.17;;;;;;;;;;5081995;28;20043;-68
2023/01/06 12:31:14;;;;;;;9.80;1.27;;;;;;;;;;5078082;28;20397;-68
2023/01/06 12:33:45;;;;;;;4.95;1.23;;;;;;;;;;5071644;28;20053;-68
2023/01/06 12:36:20;;;;;;;12.43;1.17;;;;;;;;;;5081673;28;20039;-68
2023/01/06 12:38:52;;;;;;;8.27;1.58;;;;;;;;;;5084843;28;20049;-68
2023/01/06 12:41:26;;;;;;;6.30;1.25;;;;;;;;;;5087663;28;20059;-68
2023/01/06 12:44:00;;;;;;;9.80;1.15;;;;;;;;;;5090241;28;20074;-68
2023/01/06 12:46:30;;;;;;;5.68;1.23;;;;;;;;;;5077013;28;20050;-68
2023/01/06 12:49:02;;;;;;;10.25;1.83;;;;;;;;;;5084679;28;20039;-68
2023/01/06 12:51:45;;;;;;;5.82;1.15;;;;;;;;;;5079840;28;20036;-68
2023/01/06 12:54:14;;;;;;;6.10;1.33;;;;;;;;;;5074245;28;20035;-68
2023/01/06 12:56:59;;;;;;;4.97;1.10;;;;;;;;;;5079331;28;20567;-68
2023/01/06 12:59:30;;;;;;;8.38;1.38;;;;;;;;;;5086499;28;20505;-68
2023/01/06 13:02:03;;;;;;;6.22;1.25;;;;;;;;;;5082860;28;20040;-68
2023/01/06 13:04:53;;;;;;;13.30;2.22;;;;;;;;;;5088908;28;20045;-68
2023/01/06 13:07:19;;;;;;;7.80;1.42;;;;;;;;;;5084075;28;20036;-68
2023/01/06 13:09:52;;;;;;;6.45;1.20;;;;;;;;;;5083900;28;20040;-68
2023/01/06 13:12:30;;;;;;;5.68;1.65;;;;;;;;;;5088113;28;20396;-68
2023/01/06 13:15:01;;;;;;;8.15;1.35;;;;;;;;;;5077861;28;20049;-68
2023/01/06 13:17:27;;;;;;;7.18;1.15;;;;;;;;;;5085779;28;20048;-68
2023/01/06 13:19:55;;;;;;;9.30;1.60;;;;;;;;;;5090420;28;20125;-68
2023/01/06 13:22:43;;;;;;;8.90;1.20;;;;;;;;;;5081823;28;20048;-68
2023/01/06 13:25:27;;;;;;;5.88;1.23;;;;;;;;;;5081996;28;21337;-68
2023/01/06 13:27:59;;;;;;;5.63;1.13;;;;;;;;;;5085202;28;20032;-68
2023/01/06 13:30:44;;;;;;;6.28;0.95;;;;;;;;;;5080942;28;20040;-68
2023/01/06 13:33:29;;;;;;;6.57;1.20;;;;;;;;;;5067330;28;20093;-68
2023/01/06 13:36:03;;;;;;;5.25;1.20;;;;;;;;;;5079593;28;20109;-68
2023/01/06 13:38:53;;;;;;;9.55;1.65;;;;;;;;;;5075120;28;20074;-68
2023/01/06 13:41:20;;;;;;;8.05;1.58;;;;;;;;;;5064157;28;20048;-68
2023/01/06 13:43:47;;;;;;;6.63;1.20;;;;;;;;;;5081913;28;20078;-68
2023/01/06 13:46:15;;;;;;;9.73;2.33;;;;;;;;;;5090938;28;20040;-68
2023/01/06 13:48:45;;;;;;;6.63;1.15;;;;;;;;;;5087164;28;20485;-68
2023/01/06 13:51:12;;;;;;;10.30;1.45;;;;;;;;;;5081522;28;20044;-68
2023/01/06 13:53:39;;;;;;;5.53;1.02;;;;;;;;;;5081312;28;20044;-68
2023/01/06 13:56:14;;;;;;;7.10;1.40;;;;;;;;;;5077275;28;20071;-68
2023/01/06 13:58:41;;;;;;;6.10;1.15;;;;;;;;;;5078878;28;20094;-68
2023/01/06 14:01:07;;;;;;;3.00;0.75;;;;;;;;;;5087332;28;20435;-68
2023/01/06 14:03:33;;;;;;;6.95;1.23;;;;;;;;;;5085179;28;20055;-68
2023/01/06 14:06:01;;;;;;;5.93;1.13;;;;;;;;;;5078423;22;20037;-65
2023/01/06 14:08:29;;;;;;;4.40;1.02;;;;;;;;;;5061698;28;20045;-65
2023/01/06 14:10:57;;;;;;;8.10;1.02;;;;;;;;;;5068640;28;20045;-65
2023/01/06 14:13:25;;;;;;;4.07;0.98;;;;;;;;;;5063616;28;20394;-65
2023/01/06 14:15:54;;;;;;;6.35;1.13;;;;;;;;;;5059525;28;21628;-65
2023/01/06 14:18:50;;;;;;;7.70;1.27;;;;;;;;;;5061771;28;20091;-65
2023/01/06 14:21:23;;;;;;;5.40;1.25;;;;;;;;;;5031141;28;20052;-65
2023/01/06 14:23:54;;;;;;;6.68;1.27;;;;;;;;;;5051217;28;20037;-65
2023/01/06 14:26:40;;;;;;;7.13;1.35;;;;;;;;;;5054184;28;20087;-65
2023/01/06 14:29:25;;;;;;;4.05;1.30;;;;;;;;;;5039291;28;20086;-64
2023/01/06 14:31:51;;;;;;;5.20;1.27;;;;;;;;;;5039177;28;20029;-66
2023/01/06 14:34:17;;;;;;;5.68;1.20;;;;;;;;;;5049186;28;20049;-65
2023/01/06 14:36:43;;;;;;;9.60;1.80;;;;;;;;;;5049248;28;20376;-65
2023/01/06 14:39:17;;;;;;;8.18;1.60;;;;;;;;;;5051678;28;20048;-65
2023/01/06 14:41:47;;;;;;;7.55;1.58;;;;;;;;;;5054493;28;20047;-65
2023/01/06 14:44:24;;;;;;;4.00;1.10;;;;;;;;;;5050932;28;20041;-65
2023/01/06 14:46:51;;;;;;;6.38;1.50;;;;;;;;;;5053121;28;20048;-65
2023/01/06 14:49:23;;;;;;;5.45;1.40;;;;;;;;;;5053556;28;20033;-65
2023/01/06 14:51:48;;;;;;;;;;;;;;;;;;5054737;28;20048;-65
2023/01/06 14:54:29;;;;;;;7.65;1.70;;;;;;;;;;5053494;28;19917;-65
2023/01/06 14:56:57;;;;;;;6.70;1.35;;;;;;;;;;5040876;28;20049;-65
2023/01/06 14:59:23;;;;;;;5.15;1.30;;;;;;;;;;5051882;28;20075;-65